Time;durP1;ratioP1;P1;durP2;ratioP2;P2;SDS_P1;SDS_P2;PMS_P1;PMS_P2;Temp;Humidity;BMP_temperature;BMP_pressure;BME280_temperature;BME280_humidity;BME280_pressure;Samples;Min_cycle;Max_cycle;Signal;HPM_P1;HPM_P2
2022/03/30 00:00:07;;;;;;;41.75;23.88;;;;;;;7.77;74.12;100619.91;5063590;28;20021;-66
2022/03/30 00:02:32;;;;;;;42.53;24.30;;;;;;;7.65;75.17;100626.78;5065213;28;20033;-64
2022/03/30 00:04:58;;;;;;;38.30;22.67;;;;;;;7.64;76.03;100629.41;5066664;28;20027;-65
2022/03/30 00:07:24;;;;;;;39.90;23.45;;;;;;;7.58;77.02;100622.31;5063244;28;20037;-70
2022/03/30 00:09:50;;;;;;;40.80;23.35;;;;;;;7.65;77.33;100626.78;5065955;28;20111;-64
2022/03/30 00:12:15;;;;;;;39.05;22.98;;;;;;;7.61;77.82;100635.50;5064267;28;20451;-67
2022/03/30 00:14:40;;;;;;;39.10;23.90;;;;;;;7.68;76.48;100626.81;5064611;28;20025;-70
2022/03/30 00:17:06;;;;;;;41.20;23.60;;;;;;;7.75;76.81;100626.94;5065649;28;20479;-67
2022/03/30 00:19:31;;;;;;;39.30;24.20;;;;;;;7.77;76.66;100636.59;5062875;28;20058;-70
2022/03/30 00:21:57;;;;;;;39.53;23.38;;;;;;;7.76;76.88;100631.31;5066247;28;20056;-73
2022/03/30 00:24:23;;;;;;;39.70;24.50;;;;;;;7.64;76.68;100632.03;5063266;28;20036;-70
2022/03/30 00:26:49;;;;;;;41.70;24.20;;;;;;;7.67;76.77;100627.72;5065374;28;20418;-71
2022/03/30 00:29:14;;;;;;;40.65;23.20;;;;;;;7.64;77.33;100624.13;5063889;28;20040;-73
2022/03/30 00:31:40;;;;;;;40.13;23.20;;;;;;;7.52;78.25;100624.88;5064231;28;20095;-64
2022/03/30 00:34:05;;;;;;;42.05;24.38;;;;;;;7.46;79.19;100623.03;5065387;28;20028;-64
2022/03/30 00:36:30;;;;;;;42.08;23.98;;;;;;;7.46;78.66;100612.50;5044598;28;20033;-64
2022/03/30 00:38:56;;;;;;;39.95;23.38;;;;;;;7.42;79.52;100613.34;5066435;28;20103;-64
2022/03/30 00:41:21;;;;;;;41.58;23.88;;;;;;;7.43;78.98;100601.09;5062406;28;20475;-63
2022/03/30 00:43:47;;;;;;;40.30;23.88;;;;;;;7.26;80.96;100596.44;5065951;28;20058;-64
2022/03/30 00:46:12;;;;;;;41.65;24.80;;;;;;;7.14;81.66;100610.31;5062758;28;20025;-64
2022/03/30 00:48:39;;;;;;;41.95;24.75;;;;;;;7.09;82.86;100611.09;5064257;28;20028;-71
2022/03/30 00:51:04;;;;;;;41.40;24.08;;;;;;;7.13;82.71;100608.53;5063880;28;20513;-64
2022/03/30 00:53:29;;;;;;;40.05;23.98;;;;;;;7.09;82.54;100616.38;5063430;28;20057;-64
2022/03/30 00:55:55;;;;;;;40.85;24.10;;;;;;;7.09;82.47;100619.00;5047083;28;20109;-65
2022/03/30 00:58:25;;;;;;;39.70;22.90;;;;;;;7.13;82.05;100616.41;5062639;28;20033;-63
2022/03/30 01:00:51;;;;;;;39.10;22.73;;;;;;;7.04;81.49;100618.94;5064264;28;20044;-64
2022/03/30 01:03:16;;;;;;;39.78;22.77;;;;;;;6.96;82.32;100612.66;5061974;28;20078;-64
2022/03/30 01:05:42;;;;;;;40.65;22.73;;;;;;;6.82;82.60;100611.59;5065338;28;20444;-64
2022/03/30 01:08:07;;;;;;;38.70;22.95;;;;;;;6.70;83.88;100596.47;5062291;28;20025;-64
2022/03/30 01:10:32;;;;;;;39.85;24.05;;;;;;;6.66;84.19;100606.06;5064238;28;20388;-64
2022/03/30 01:13:00;;;;;;;39.83;23.30;;;;;;;6.57;85.18;100596.28;5063654;28;20105;-65
2022/03/30 01:15:25;;;;;;;41.15;23.30;;;;;;;6.53;85.63;100593.59;5063197;28;20383;-73
2022/03/30 01:17:51;;;;;;;40.30;23.10;;;;;;;6.53;85.42;100588.34;5064591;28;20111;-64
2022/03/30 01:20:18;;;;;;;40.15;23.35;;;;;;;6.50;85.41;100583.03;5061637;28;20032;-64
2022/03/30 01:22:43;;;;;;;40.35;23.45;;;;;;;6.53;85.49;100589.22;5065014;28;20059;-63
2022/03/30 01:25:09;;;;;;;42.28;24.45;;;;;;;6.34;85.73;100588.00;5061861;28;20052;-65
2022/03/30 01:27:35;;;;;;;38.30;22.25;;;;;;;6.35;86.58;100584.53;5064531;28;20025;-72
2022/03/30 01:32:53;;;;;;;42.38;23.33;;;;;;;6.28;86.86;100583.53;5059991;28;20075;-72
2022/03/30 01:35:19;;;;;;;40.67;23.58;;;;;;;6.35;86.95;100571.41;5064222;28;20467;-64
2022/03/30 01:37:44;;;;;;;42.10;23.02;;;;;;;6.33;87.46;100580.13;5061781;28;20056;-63
2022/03/30 01:40:10;;;;;;;40.95;23.40;;;;;;;6.30;87.32;100574.81;5065129;28;20032;-64
2022/03/30 01:42:35;;;;;;;40.35;23.02;;;;;;;6.33;87.58;100578.38;5061278;28;20053;-66
2022/03/30 01:45:02;;;;;;;40.10;22.65;;;;;;;6.38;87.46;100575.84;5063980;28;20032;-73
2022/03/30 01:47:27;;;;;;;41.55;23.40;;;;;;;6.33;87.03;100585.38;5062384;28;20028;-64
2022/03/30 01:49:53;;;;;;;39.40;23.15;;;;;;;6.37;87.22;100581.94;5062588;28;20083;-64
2022/03/30 01:52:19;;;;;;;40.60;23.27;;;;;;;6.43;87.61;100571.53;5063906;28;20379;-64
2022/03/30 01:54:45;;;;;;;41.63;24.45;;;;;;;6.39;87.96;100570.63;5061400;28;20037;-70
2022/03/30 01:57:14;;;;;;;42.08;24.88;;;;;;;6.31;88.27;100571.34;5063883;28;20425;-70
2022/03/30 01:59:42;;;;;;;42.78;24.55;;;;;;;6.20;89.02;100569.38;5046144;28;20020;-73
2022/03/30 02:02:08;;;;;;;41.70;24.80;;;;;;;6.12;89.42;100568.38;5061324;28;20025;-64
2022/03/30 02:04:35;;;;;;;41.45;24.40;;;;;;;6.12;90.19;100565.75;5064510;28;20463;-64
2022/03/30 02:07:02;;;;;;;40.22;23.48;;;;;;;6.07;89.84;100559.53;5061377;28;20036;-64
2022/03/30 02:09:27;;;;;;;40.92;24.42;;;;;;;6.02;90.32;100548.94;5063860;28;20089;-73
2022/03/30 02:11:54;;;;;;;41.40;25.42;;;;;;;5.98;90.42;100556.75;5061965;28;20024;-73
2022/03/30 02:14:20;;;;;;;40.38;24.15;;;;;;;5.96;90.65;100555.81;5063159;28;20025;-72
2022/03/30 02:16:45;;;;;;;41.70;24.55;;;;;;;5.87;90.92;100551.28;5061953;28;20020;-64
2022/03/30 02:19:11;;;;;;;42.45;23.63;;;;;;;5.77;92.09;100550.22;5060473;28;20075;-64
2022/03/30 02:21:37;;;;;;;41.60;24.08;;;;;;;5.79;91.79;100555.47;5063419;28;20525;-73
2022/03/30 02:24:02;;;;;;;41.85;24.58;;;;;;;5.70;92.46;100556.19;5061117;28;20029;-63
2022/03/30 02:26:28;;;;;;;43.70;24.60;;;;;;;5.67;92.96;100545.63;5064579;28;20042;-64
2022/03/30 02:28:54;;;;;;;41.08;24.13;;;;;;;5.72;92.92;100546.59;5060871;28;20037;-64
2022/03/30 02:31:20;;;;;;;40.30;24.38;;;;;;;5.59;93.23;100540.22;5063408;28;20051;-63
2022/03/30 02:33:47;;;;;;;41.88;25.25;;;;;;;5.58;94.02;100522.75;5061741;28;20609;-65
2022/03/30 02:36:13;;;;;;;43.15;24.67;;;;;;;5.57;94.11;100527.09;5062490;28;20051;-64
2022/03/30 02:38:39;;;;;;;43.88;25.23;;;;;;;5.51;94.92;100524.34;5062625;28;20017;-63
2022/03/30 02:41:05;;;;;;;40.85;24.63;;;;;;;5.54;95.08;100513.03;5061183;28;20488;-64
2022/03/30 02:43:31;;;;;;;40.97;24.38;;;;;;;5.53;94.94;100517.41;5063675;28;20489;-72
2022/03/30 02:45:57;;;;;;;40.97;24.05;;;;;;;5.55;95.43;100507.81;5060848;28;20032;-64
2022/03/30 02:48:28;;;;;;;43.25;24.40;;;;;;;5.46;95.44;100517.25;5063919;28;20066;-63
2022/03/30 02:50:56;;;;;;;42.92;24.20;;;;;;;5.47;95.70;100512.03;5060994;28;20025;-64
2022/03/30 02:53:22;;;;;;;42.00;23.75;;;;;;;5.49;96.05;100501.56;5063493;28;20115;-64
2022/03/30 02:55:48;;;;;;;42.22;24.05;;;;;;;5.39;96.51;100504.00;5061706;28;20551;-63
2022/03/30 02:58:14;;;;;;;42.17;24.52;;;;;;;5.40;96.68;100510.13;5060955;28;20021;-72
2022/03/30 03:00:39;;;;;;;44.65;24.52;;;;;;;5.33;97.14;100497.75;5062258;28;20036;-63
2022/03/30 03:03:07;;;;;;;43.08;24.65;;;;;;;5.31;97.32;100505.59;5062404;28;20387;-63
2022/03/30 03:05:33;;;;;;;43.80;26.05;;;;;;;5.32;97.66;100501.25;5061584;28;20538;-63
2022/03/30 03:08:03;;;;;;;44.40;24.75;;;;;;;5.30;98.45;100498.59;5063266;28;20024;-63
2022/03/30 03:10:29;;;;;;;42.70;23.98;;;;;;;5.22;98.91;100501.03;5060714;28;20456;-63
2022/03/30 03:12:55;;;;;;;41.55;23.67;;;;;;;5.31;98.54;100499.47;5063979;28;20106;-63
2022/03/30 03:15:22;;;;;;;41.00;24.17;;;;;;;5.31;98.55;100502.09;5056434;28;20021;-63
2022/03/30 03:17:47;;;;;;;43.05;23.75;;;;;;;5.28;98.73;100505.53;5062275;28;20388;-63
2022/03/30 03:20:13;;;;;;;38.83;24.17;;;;;;;5.37;98.53;100499.59;5063488;28;20020;-63
2022/03/30 03:22:39;;;;;;;42.22;24.38;;;;;;;5.28;98.32;100495.03;5062420;28;20398;-63
2022/03/30 03:25:06;;;;;;;40.25;23.73;;;;;;;5.26;98.69;100493.22;5066332;28;20426;-63
2022/03/30 03:27:32;;;;;;;42.35;24.40;;;;;;;5.24;99.37;100498.44;5065577;28;20025;-63
2022/03/30 03:29:57;;;;;;;41.92;24.15;;;;;;;5.18;99.63;100488.72;5064878;28;20032;-63
2022/03/30 03:32:23;;;;;;;43.17;24.23;;;;;;;5.18;99.33;100485.22;5066964;28;20455;-63
2022/03/30 03:34:48;;;;;;;42.45;24.60;;;;;;;5.15;99.69;100491.28;5063550;28;20525;-63
2022/03/30 03:37:15;;;;;;;41.55;24.02;;;;;;;5.14;100.00;100483.38;5059306;28;20068;-63
2022/03/30 03:39:41;;;;;;;42.63;25.48;;;;;;;5.09;100.00;100478.06;5066669;28;20059;-63
2022/03/30 03:42:07;;;;;;;40.33;23.83;;;;;;;5.01;100.00;100485.78;5064493;28;20214;-63
2022/03/30 03:44:32;;;;;;;41.55;24.38;;;;;;;4.99;100.00;100483.97;5065345;28;20534;-63
2022/03/30 03:46:57;;;;;;;42.45;23.95;;;;;;;4.92;100.00;100482.06;5066043;28;20360;-63
2022/03/30 03:49:23;;;;;;;40.38;24.23;;;;;;;4.79;100.00;100473.94;5063506;28;20545;-63
2022/03/30 03:51:48;;;;;;;42.63;23.77;;;;;;;4.72;100.00;100472.03;5066962;28;20024;-63
2022/03/30 03:54:13;;;;;;;41.50;24.02;;;;;;;4.65;100.00;100475.38;5067461;28;20387;-63
2022/03/30 03:56:40;;;;;;;41.85;23.95;;;;;;;4.58;100.00;100476.09;5063563;28;20025;-63
2022/03/30 03:59:05;;;;;;;43.17;23.88;;;;;;;4.42;100.00;100475.72;5065409;28;20025;-63
2022/03/30 04:01:30;;;;;;;45.15;25.15;;;;;;;4.23;100.00;100468.28;5065720;28;20036;-63
2022/03/30 04:03:56;;;;;;;42.92;24.27;;;;;;;4.19;100.00;100473.44;5064670;28;20028;-63
2022/03/30 04:06:22;;;;;;;42.00;24.23;;;;;;;4.15;100.00;100468.06;5064635;28;20033;-63
2022/03/30 04:08:48;;;;;;;40.88;24.33;;;;;;;4.09;100.00;100463.59;5065702;28;20024;-64
2022/03/30 04:11:14;;;;;;;43.75;25.08;;;;;;;4.01;100.00;100471.25;5063270;28;20059;-64
2022/03/30 04:13:39;;;;;;;45.30;24.60;;;;;;;4.02;100.00;100464.31;5066658;28;20056;-64
2022/03/30 04:16:05;;;;;;;44.10;25.45;;;;;;;4.05;100.00;100459.13;5063309;28;20476;-72
2022/03/30 04:18:30;;;;;;;43.92;24.67;;;;;;;4.00;100.00;100460.75;5065751;28;20028;-72
2022/03/30 04:20:56;;;;;;;43.55;24.45;;;;;;;3.95;100.00;100460.63;5063832;28;20097;-64
2022/03/30 04:23:21;;;;;;;42.03;25.10;;;;;;;3.96;100.00;100458.88;5064655;28;20134;-64
2022/03/30 04:25:46;;;;;;;42.90;24.30;;;;;;;3.91;100.00;100458.78;5064958;28;20027;-65
2022/03/30 04:28:14;;;;;;;42.92;25.27;;;;;;;3.96;100.00;100456.28;5063195;28;20063;-71
2022/03/30 04:30:40;;;;;;;42.28;24.80;;;;;;;3.93;100.00;100456.19;5066086;28;20024;-67
2022/03/30 04:33:05;;;;;;;44.08;24.48;;;;;;;3.90;100.00;100461.34;5062432;28;20024;-64
2022/03/30 04:35:30;;;;;;;43.55;24.85;;;;;;;3.83;100.00;100463.81;5045838;28;20399;-64
2022/03/30 04:37:57;;;;;;;43.85;25.30;;;;;;;3.80;100.00;100453.28;5063429;28;20463;-64
2022/03/30 04:40:24;;;;;;;42.20;25.20;;;;;;;3.84;100.00;100460.38;5064148;28;20025;-72
2022/03/30 04:42:50;;;;;;;45.53;25.70;;;;;;;3.77;100.00;100461.06;5064681;28;20421;-69
2022/03/30 04:45:17;;;;;;;44.30;25.90;;;;;;;3.70;100.00;100469.59;5063293;28;20021;-72
2022/03/30 04:47:42;;;;;;;44.90;25.83;;;;;;;3.69;100.00;100465.19;5065399;28;20353;-64
2022/03/30 04:50:11;;;;;;;47.00;26.40;;;;;;;3.63;100.00;100467.66;5062352;28;20032;-63
2022/03/30 04:52:38;;;;;;;44.03;25.95;;;;;;;3.53;100.00;100466.50;5058736;28;20060;-65
2022/03/30 04:55:05;;;;;;;49.42;26.88;;;;;;;3.54;100.00;100472.63;5065771;28;20031;-63
2022/03/30 04:57:30;;;;;;;44.63;25.90;;;;;;;3.42;100.00;100468.84;5065489;28;20021;-64
2022/03/30 04:59:56;;;;;;;46.08;26.40;;;;;;;3.36;100.00;100468.66;5062252;28;20032;-69
2022/03/30 05:02:22;;;;;;;48.53;26.80;;;;;;;3.30;100.00;100466.75;5064345;28;20025;-64
2022/03/30 05:04:48;;;;;;;46.15;27.33;;;;;;;3.32;100.00;100474.66;5063593;28;20025;-68
2022/03/30 05:07:14;;;;;;;47.65;26.92;;;;;;;3.29;100.00;100474.56;5062963;28;20142;-68
2022/03/30 05:09:39;;;;;;;45.65;27.80;;;;;;;3.23;100.00;100464.84;5064635;28;20468;-63
2022/03/30 05:12:05;;;;;;;48.17;27.67;;;;;;;3.09;100.00;100469.66;5062006;28;20029;-65
2022/03/30 05:14:32;;;;;;;47.90;27.85;;;;;;;3.14;100.00;100468.06;5065146;28;20060;-72
2022/03/30 05:16:58;;;;;;;48.53;27.10;;;;;;;3.09;100.00;100455.72;5061494;28;20482;-70
2022/03/30 05:19:23;;;;;;;46.53;26.63;;;;;;;3.08;100.00;100461.78;5044475;28;20029;-65
2022/03/30 05:21:49;;;;;;;47.28;26.67;;;;;;;3.05;100.00;100454.75;5035246;28;20114;-62
2022/03/30 05:24:14;;;;;;;48.38;26.70;;;;;;;3.02;100.00;100454.66;5057785;28;20029;-63
2022/03/30 05:26:39;;;;;;;47.45;26.83;;;;;;;2.96;100.00;100450.13;5058192;28;20044;-64
2022/03/30 05:29:04;;;;;;;49.20;28.02;;;;;;;2.88;100.00;100454.25;5056858;28;20471;-65
2022/03/30 05:31:30;;;;;;;45.15;27.42;;;;;;;2.91;100.00;100449.13;5053744;28;20057;-68
2022/03/30 05:33:55;;;;;;;48.45;27.35;;;;;;;2.89;100.00;100458.63;5057406;28;20103;-63
2022/03/30 05:36:21;;;;;;;47.38;26.67;;;;;;;2.87;100.00;100447.28;5057227;28;20154;-68
2022/03/30 05:38:48;;;;;;;46.60;27.08;;;;;;;2.83;100.00;100460.19;5056165;28;20028;-63
2022/03/30 05:41:14;;;;;;;48.28;27.63;;;;;;;2.86;100.00;100448.09;5050283;28;20129;-63
2022/03/30 05:43:39;;;;;;;47.60;27.58;;;;;;;2.87;100.00;100457.72;5034659;28;20498;-74
2022/03/30 05:46:05;;;;;;;45.05;24.88;;;;;;;2.97;100.00;100453.63;5057249;28;20033;-70
2022/03/30 05:48:30;;;;;;;48.17;26.27;;;;;;;2.87;100.00;100447.28;5055952;28;20036;-66
2022/03/30 05:50:56;;;;;;;47.30;27.10;;;;;;;2.96;100.00;100451.88;5055875;28;20017;-62
2022/03/30 05:53:22;;;;;;;49.10;26.98;;;;;;;3.00;100.00;100451.13;5035944;28;20033;-62
2022/03/30 05:55:47;;;;;;;46.85;27.08;;;;;;;3.13;100.00;100448.00;5054944;28;20032;-63
2022/03/30 05:58:14;;;;;;;47.88;26.55;;;;;;;3.16;100.00;100449.84;5056486;28;20057;-68
2022/03/30 06:00:41;;;;;;;48.45;28.15;;;;;;;3.13;100.00;100448.00;5056519;28;20027;-63
2022/03/30 06:03:06;;;;;;;49.08;26.92;;;;;;;3.19;100.00;100456.84;5043723;28;20421;-63
2022/03/30 06:05:32;;;;;;;50.95;28.00;;;;;;;3.16;100.00;100459.38;5054142;28;20029;-63
2022/03/30 06:07:59;;;;;;;48.88;27.13;;;;;;;3.16;100.00;100462.91;5057916;28;20025;-65
2022/03/30 06:10:27;;;;;;;50.15;28.52;;;;;;;3.13;100.00;100452.34;5054714;28;20028;-62
2022/03/30 06:12:56;;;;;;;52.20;28.20;;;;;;;3.11;100.00;100465.34;5057200;28;20033;-63
2022/03/30 06:15:22;;;;;;;53.65;28.20;;;;;;;3.22;100.00;100470.91;5057951;28;20029;-63
2022/03/30 06:17:49;;;;;;;49.35;27.38;;;;;;;3.24;100.00;100474.44;5053086;28;20025;-62
2022/03/30 06:20:15;;;;;;;45.85;28.02;;;;;;;3.31;100.00;100471.16;5052741;28;20041;-62
2022/03/30 06:22:41;;;;;;;48.72;28.80;;;;;;;3.32;100.00;100479.91;5032792;28;20052;-63
2022/03/30 06:25:10;;;;;;;48.80;27.60;;;;;;;3.39;100.00;100475.69;5048667;28;20060;-62
2022/03/30 06:27:39;;;;;;;49.63;28.80;;;;;;;3.48;100.00;100469.00;5057000;28;20051;-63
2022/03/30 06:30:07;;;;;;;52.72;27.70;;;;;;;3.50;100.00;100471.66;5056667;28;20455;-63
2022/03/30 06:32:33;;;;;;;48.55;27.77;;;;;;;3.56;100.00;100469.22;5055824;28;20033;-63
2022/03/30 06:34:58;;;;;;;48.53;26.40;;;;;;;3.59;100.00;100471.03;5056621;28;20428;-63
2022/03/30 06:37:24;;;;;;;46.35;26.20;;;;;;;3.77;100.00;100470.63;5058369;28;20029;-63
2022/03/30 06:39:50;;;;;;;47.28;27.35;;;;;;;3.77;100.00;100458.44;5056745;28;20451;-63
2022/03/30 06:42:17;;;;;;;50.00;27.90;;;;;;;3.78;100.00;100454.09;5049896;28;20103;-63
2022/03/30 06:44:42;;;;;;;50.28;27.92;;;;;;;3.84;100.00;100460.38;5048121;28;20090;-63
2022/03/30 06:47:08;;;;;;;50.17;27.13;;;;;;;3.94;100.00;100458.84;5051213;28;20025;-63
2022/03/30 06:49:35;;;;;;;50.33;27.60;;;;;;;3.96;100.00;100454.56;5050181;28;20037;-63
2022/03/30 06:52:00;;;;;;;48.17;27.02;;;;;;;3.98;100.00;100467.69;5058261;28;20067;-63
2022/03/30 06:54:26;;;;;;;47.92;27.10;;;;;;;4.07;100.00;100467.91;5054238;28;20053;-63
2022/03/30 06:56:51;;;;;;;49.80;27.20;;;;;;;4.24;100.00;100464.78;5033802;28;20499;-63
2022/03/30 06:59:18;;;;;;;47.90;25.88;;;;;;;4.35;100.00;100452.84;5059387;28;20029;-63
2022/03/30 07:01:44;;;;;;;44.50;25.75;;;;;;;4.49;100.00;100454.06;5057613;28;20059;-63
2022/03/30 07:04:09;;;;;;;43.72;25.30;;;;;;;4.61;100.00;100456.06;5056718;28;20064;-63
2022/03/30 07:06:34;;;;;;;47.45;26.15;;;;;;;4.70;100.00;100458.00;5060685;28;20389;-64
2022/03/30 07:11:43;;;;;;;45.00;25.50;;;;;;;5.03;100.00;100457.84;5058727;28;20044;-63
2022/03/30 07:14:09;;;;;;;42.83;24.25;;;;;;;5.22;100.00;100464.34;5052252;28;20033;-66
2022/03/30 07:16:34;;;;;;;43.55;25.25;;;;;;;5.44;100.00;100458.66;5050738;28;20032;-61
2022/03/30 07:19:00;;;;;;;47.05;28.40;;;;;;;5.65;100.00;100463.41;5037003;28;20061;-67
2022/03/30 07:21:25;;;;;;;47.17;32.38;;;;;;;5.84;100.00;100455.03;5048163;28;20025;-66
2022/03/30 07:23:50;;;;;;;51.85;37.67;;;;;;;6.19;100.00;100456.50;5063893;28;20060;-63
2022/03/30 07:26:16;;;;;;;47.83;32.65;;;;;;;6.48;100.00;100454.34;5058826;28;20526;-64
2022/03/30 07:28:41;;;;;;;43.22;24.15;;;;;;;6.74;100.00;100456.44;5035828;28;20045;-66
2022/03/30 07:31:07;;;;;;;39.80;24.67;;;;;;;7.04;100.00;100458.59;5057240;28;20104;-75
2022/03/30 07:33:33;;;;;;;41.28;24.95;;;;;;;7.23;100.00;100457.06;5061563;28;20379;-62
2022/03/30 07:35:59;;;;;;;43.00;22.10;;;;;;;7.24;100.00;100464.09;5061656;28;20028;-63
2022/03/30 07:38:25;;;;;;;42.63;23.05;;;;;;;7.37;100.00;100458.97;5058811;28;20028;-63
2022/03/30 07:40:51;;;;;;;38.92;22.45;;;;;;;7.55;100.00;100455.69;5059466;28;20037;-63
2022/03/30 07:43:17;;;;;;;41.22;22.00;;;;;;;7.67;100.00;100456.69;5057196;28;20032;-64
2022/03/30 07:45:43;;;;;;;42.63;21.90;;;;;;;7.82;100.00;100448.06;5059294;28;20464;-64
2022/03/30 07:48:09;;;;;;;38.72;21.20;;;;;;;7.91;100.00;100449.03;5055915;28;20037;-65
2022/03/30 07:50:35;;;;;;;38.40;21.67;;;;;;;8.05;100.00;100447.34;5059247;28;20061;-71
2022/03/30 07:53:01;;;;;;;39.47;21.85;;;;;;;8.24;100.00;100451.00;5053303;28;20126;-71
2022/03/30 07:55:28;;;;;;;39.30;21.40;;;;;;;8.54;100.00;100452.16;5056026;28;20067;-67
2022/03/30 07:57:54;;;;;;;38.97;20.77;;;;;;;8.71;100.00;100445.22;5052362;28;20027;-70
2022/03/30 08:00:21;;;;;;;37.42;20.98;;;;;;;8.76;100.00;100454.91;5059568;28;20032;-69
2022/03/30 08:02:48;;;;;;;36.55;20.85;;;;;;;8.80;99.76;100451.44;5064542;28;20534;-65
2022/03/30 08:05:15;;;;;;;36.55;21.20;;;;;;;8.65;99.98;100452.22;5063233;28;20025;-70
2022/03/30 08:07:44;;;;;;;39.20;21.33;;;;;;;8.51;100.00;100450.38;5065621;28;20085;-71
2022/03/30 08:10:10;;;;;;;39.05;22.20;;;;;;;8.48;100.00;100460.03;5063925;28;20041;-71
2022/03/30 08:12:37;;;;;;;38.45;20.55;;;;;;;8.41;100.00;100458.19;5065270;28;20530;-68
2022/03/30 08:15:03;;;;;;;36.90;21.23;;;;;;;8.37;100.00;100457.25;5064717;28;20470;-68
2022/03/30 08:17:29;;;;;;;39.92;21.15;;;;;;;8.54;100.00;100465.31;5064453;28;20051;-72
2022/03/30 08:19:57;;;;;;;39.13;21.27;;;;;;;8.80;100.00;100457.56;5063332;28;20028;-63
2022/03/30 08:22:26;;;;;;;37.03;21.38;;;;;;;8.87;99.45;100463.78;5065057;28;20025;-63
2022/03/30 08:25:10;;;;;;;39.88;20.27;;;;;;;9.07;98.81;100467.38;5064115;28;20024;-63
2022/03/30 08:27:36;;;;;;;37.13;20.23;;;;;;;9.30;98.33;100463.94;5063332;28;20079;-63
2022/03/30 08:30:04;;;;;;;36.05;19.67;;;;;;;9.42;95.55;100466.63;5064933;28;20033;-63
2022/03/30 08:32:29;;;;;;;36.00;19.42;;;;;;;9.45;94.53;100459.59;5064064;28;20021;-63
2022/03/30 08:34:56;;;;;;;35.70;20.25;;;;;;;9.57;94.78;100459.66;5064392;28;20033;-63
2022/03/30 08:37:23;;;;;;;36.30;19.63;;;;;;;9.73;92.79;100457.91;5064856;28;20534;-63
2022/03/30 08:39:48;;;;;;;33.25;18.50;;;;;;;10.04;91.86;100457.94;5063248;28;20025;-63
2022/03/30 08:42:15;;;;;;;34.05;18.20;;;;;;;10.23;89.06;100454.41;5047869;28;20430;-63
2022/03/30 08:44:41;;;;;;;34.20;18.00;;;;;;;10.45;88.74;100455.28;5058453;28;20503;-63
2022/03/30 08:47:08;;;;;;;39.25;19.80;;;;;;;10.68;87.28;100453.53;5065752;28;20459;-63
2022/03/30 08:49:35;;;;;;;34.78;18.38;;;;;;;10.85;85.78;100449.06;5063036;28;20056;-63
2022/03/30 08:52:06;;;;;;;33.08;18.02;;;;;;;11.11;86.67;100442.78;5064596;28;20024;-63
2022/03/30 08:54:32;;;;;;;30.05;16.27;;;;;;;11.32;84.21;100439.16;5063076;28;20109;-63
2022/03/30 08:56:57;;;;;;;32.47;16.15;;;;;;;11.69;82.14;100439.84;5064347;28;20469;-63
2022/03/30 08:59:24;;;;;;;31.52;16.52;;;;;;;12.05;79.47;100436.94;5064532;28;20040;-63
2022/03/30 09:01:53;;;;;;;31.70;17.10;;;;;;;12.37;79.65;100439.31;5064243;28;20024;-63
2022/03/30 09:04:19;;;;;;;31.80;17.10;;;;;;;12.75;76.43;100442.47;5063059;28;20491;-63
2022/03/30 09:06:47;;;;;;;31.30;16.45;;;;;;;12.78;76.65;100437.13;5065057;28;20032;-63
2022/03/30 09:09:15;;;;;;;29.13;16.10;;;;;;;12.98;75.25;100434.25;5062403;28;20475;-63
2022/03/30 09:11:52;;;;;;;29.70;15.38;;;;;;;12.96;74.56;100429.84;5065384;28;20075;-63
2022/03/30 09:14:20;;;;;;;31.52;16.15;;;;;;;13.04;74.90;100428.00;5063013;28;20040;-63
2022/03/30 09:16:49;;;;;;;29.88;16.33;;;;;;;13.37;73.15;100439.13;5064287;28;20537;-63
2022/03/30 09:19:17;;;;;;;29.85;15.95;;;;;;;13.47;72.31;100427.47;5064861;28;20495;-63
2022/03/30 09:21:48;;;;;;;30.00;16.13;;;;;;;13.38;72.79;100435.53;5062518;28;20021;-63
2022/03/30 09:24:20;;;;;;;32.92;16.92;;;;;;;14.02;71.21;100433.69;5061556;28;20087;-63
2022/03/30 09:26:47;;;;;;;31.15;16.88;;;;;;;14.38;68.45;100438.41;5050743;28;20486;-63
2022/03/30 09:29:13;;;;;;;31.35;16.88;;;;;;;15.03;65.87;100426.56;5058607;28;20032;-64
2022/03/30 09:31:41;;;;;;;29.67;16.38;;;;;;;14.86;61.81;100419.81;5053394;28;20029;-63
2022/03/30 09:34:08;;;;;;;29.85;15.52;;;;;;;14.64;62.85;100412.25;5059193;28;20086;-64
2022/03/30 09:36:40;;;;;;;30.20;17.35;;;;;;;14.60;63.06;100413.16;5055440;28;20066;-65
2022/03/30 09:39:25;;;;;;;33.63;17.95;;;;;;;15.01;62.02;100407.09;5056820;28;20085;-63
2022/03/30 09:41:53;;;;;;;30.52;16.55;;;;;;;15.34;59.32;100403.69;5032668;28;20041;-62
2022/03/30 09:44:19;;;;;;;30.77;16.20;;;;;;;15.22;55.25;100406.66;5058006;28;20078;-64
2022/03/30 09:46:56;;;;;;;30.35;16.27;;;;;;;15.20;57.56;100399.59;5054607;28;20028;-63
2022/03/30 09:49:54;;;;;;;28.98;16.42;;;;;;;15.30;55.83;100402.03;5056297;28;20037;-63
2022/03/30 09:52:23;;;;;;;31.98;17.73;;;;;;;15.22;55.06;100401.31;4974493;28;20503;-63
2022/03/30 09:54:54;;;;;;;31.58;17.08;;;;;;;15.71;52.63;100390.44;4969894;28;20019;-62
2022/03/30 09:57:22;;;;;;;31.35;16.98;;;;;;;16.09;49.88;100402.88;4979597;28;20478;-63
2022/03/30 10:00:06;;;;;;;31.67;17.40;;;;;;;17.61;44.43;100394.13;4979432;28;20031;-64
2022/03/30 10:02:43;;;;;;;31.98;16.98;;;;;;;18.34;39.98;100397.97;4978029;28;20501;-63
2022/03/30 10:05:11;;;;;;;29.55;16.40;;;;;;;17.69;37.92;100397.44;4982563;28;20041;-64
2022/03/30 10:07:37;;;;;;;31.08;16.80;;;;;;;17.19;39.51;100399.88;4977161;28;20393;-64
2022/03/30 10:10:04;;;;;;;29.45;16.15;;;;;;;17.60;38.64;100393.25;4982631;28;20046;-63
2022/03/30 10:12:31;;;;;;;30.67;17.00;;;;;;;18.16;37.51;100395.91;4979059;28;20034;-63
2022/03/30 10:14:56;;;;;;;29.55;16.13;;;;;;;18.37;36.01;100383.59;4979266;28;20144;-63
2022/03/30 10:17:24;;;;;;;30.10;16.52;;;;;;;18.17;36.95;100384.28;4980280;28;20586;-63
2022/03/30 10:19:52;;;;;;;29.50;16.58;;;;;;;18.14;36.95;100384.41;4976333;28;20120;-62
2022/03/30 10:22:39;;;;;;;28.00;15.50;;;;;;;18.76;37.15;100381.28;4982111;28;20110;-63
2022/03/30 10:25:53;;;;;;;29.23;16.27;;;;;;;19.66;35.76;100383.25;4976819;28;20045;-63
2022/03/30 10:28:24;;;;;;;29.50;15.98;;;;;;;19.89;33.22;100373.38;5010694;28;20044;-63
2022/03/30 10:30:55;;;;;;;28.13;15.65;;;;;;;20.15;33.45;100367.81;5063161;28;20082;-63
2022/03/30 10:33:36;;;;;;;27.65;15.23;;;;;;;20.82;33.26;100373.81;5063613;28;20480;-63
2022/03/30 10:36:23;;;;;;;29.13;15.20;;;;;;;20.63;33.23;100371.06;5061846;28;20029;-63
2022/03/30 10:39:15;;;;;;;28.92;15.38;;;;;;;21.28;31.97;100367.25;5065393;28;20021;-63
2022/03/30 10:41:47;;;;;;;28.83;15.88;;;;;;;20.64;31.80;100355.84;5054411;28;20043;-63
2022/03/30 10:44:36;;;;;;;30.15;15.95;;;;;;;20.86;32.05;100358.44;5066368;28;20066;-63
2022/03/30 10:47:20;;;;;;;30.23;16.27;;;;;;;21.30;31.42;100354.59;5061261;28;20052;-63
2022/03/30 10:49:51;;;;;;;27.83;15.48;;;;;;;21.90;30.35;100344.50;5066025;28;20035;-63
2022/03/30 10:52:38;;;;;;;26.80;15.15;;;;;;;22.39;30.07;100351.84;5066838;28;20051;-62
2022/03/30 10:55:12;;;;;;;28.15;15.02;;;;;;;22.69;29.34;100334.13;5062001;28;20464;-62
2022/03/30 10:58:01;;;;;;;27.30;15.82;;;;;;;23.15;29.62;100332.50;5064673;28;20469;-63
2022/03/30 11:00:34;;;;;;;28.08;15.35;;;;;;;22.40;27.88;100329.38;5061714;28;20036;-63
2022/03/30 11:03:14;;;;;;;27.35;15.05;;;;;;;22.85;29.25;100337.75;5066846;28;20021;-63
2022/03/30 11:05:45;;;;;;;26.67;14.50;;;;;;;23.41;27.83;100326.59;5066026;28;20035;-63
2022/03/30 11:08:32;;;;;;;28.77;14.95;;;;;;;23.45;28.12;100322.75;5065522;28;20031;-63
2022/03/30 11:11:01;;;;;;;27.83;15.07;;;;;;;23.31;27.08;100328.94;5061504;28;20028;-62
2022/03/30 11:13:26;;;;;;;27.42;15.02;;;;;;;24.19;26.22;100321.13;5067454;28;20029;-63
2022/03/30 11:16:00;;;;;;;26.42;14.75;;;;;;;24.91;25.42;100315.78;5063998;28;20024;-63
2022/03/30 11:18:30;;;;;;;27.15;15.48;;;;;;;25.02;24.84;100310.56;5058919;28;20075;-63